Time;durP1;ratioP1;P1;durP2;ratioP2;P2;SDS_P1;SDS_P2;PMS_P1;PMS_P2;Temp;Humidity;BMP_temperature;BMP_pressure;BME280_temperature;BME280_humidity;BME280_pressure;Samples;Min_cycle;Max_cycle;Signal;HPM_P1;HPM_P2
2022/03/22 00:02:12;;;;;;;16.00;11.53;;;;;;;7.50;44.22;100193.06;7035304;28;20288;-83
2022/03/22 00:05:33;;;;;;;13.47;10.30;;;;;;;7.75;43.94;100221.84;7040028;28;20215;-82
2022/03/22 00:08:57;;;;;;;17.63;11.33;;;;;;;7.66;43.82;100182.50;7039993;28;20230;-83
2022/03/22 00:12:18;;;;;;;15.70;11.50;;;;;;;7.40;44.85;100214.59;7035298;28;20201;-84
2022/03/22 00:15:40;;;;;;;12.07;10.33;;;;;;;7.49;45.05;100205.63;7036465;28;20230;-86
2022/03/22 00:19:01;;;;;;;13.37;10.93;;;;;;;7.29;44.61;100201.41;7034862;28;20221;-84
2022/03/22 00:22:24;;;;;;;14.13;10.60;;;;;;;7.10;45.04;100181.88;7010154;28;20207;-84
2022/03/22 00:25:47;;;;;;;13.93;10.73;;;;;;;6.82;46.09;100180.19;7007389;28;20201;-84
2022/03/22 00:29:08;;;;;;;13.67;10.67;;;;;;;7.27;45.40;100208.75;7007406;28;20256;-83
2022/03/22 00:32:30;;;;;;;17.37;11.70;;;;;;;7.39;45.00;100209.38;7008021;28;20820;-84
2022/03/22 00:35:51;;;;;;;21.63;15.47;;;;;;;7.17;45.34;100210.66;7008454;28;20229;-84
2022/03/22 00:39:13;;;;;;;28.20;17.73;;;;;;;7.09;45.44;100213.25;7009919;28;20339;-83
2022/03/22 00:42:36;;;;;;;22.80;14.87;;;;;;;6.90;46.14;100204.44;7009622;28;20666;-84
2022/03/22 00:45:57;;;;;;;16.00;11.73;;;;;;;7.00;46.38;100213.25;7008848;28;20283;-84
2022/03/22 00:49:19;;;;;;;19.40;12.03;;;;;;;6.64;46.61;100198.91;7009644;28;20343;-84
2022/03/22 00:52:41;;;;;;;16.53;11.40;;;;;;;6.91;46.61;100206.13;7009976;28;20651;-83
2022/03/22 00:56:02;;;;;;;14.23;10.63;;;;;;;6.72;45.05;100132.00;7009302;28;20230;-84
2022/03/22 01:03:05;;;;;;;15.50;10.67;;;;;;;6.40;47.25;100203.91;7010444;28;20281;-83
2022/03/22 01:06:27;;;;;;;16.10;11.10;;;;;;;6.30;47.78;100207.59;7009147;28;20664;-83
2022/03/22 01:09:49;;;;;;;13.20;11.10;;;;;;;6.35;47.54;100208.84;7009538;28;20220;-85
2022/03/22 01:13:11;;;;;;;13.03;10.67;;;;;;;6.25;47.35;100193.78;7009066;28;20204;-84
2022/03/22 01:16:34;;;;;;;18.33;11.97;;;;;;;6.68;46.76;100200.31;7008786;28;20282;-84
2022/03/22 01:19:56;;;;;;;15.90;11.37;;;;;;;6.31;47.07;100188.69;7007483;28;20199;-84
2022/03/22 01:23:20;;;;;;;13.73;10.80;;;;;;;6.26;47.63;100184.75;7006029;28;20198;-84
2022/03/22 01:26:41;;;;;;;16.87;11.93;;;;;;;6.68;46.58;100186.91;7004678;28;20709;-85
2022/03/22 01:30:05;;;;;;;16.93;11.17;;;;;;;6.75;46.48;100188.00;7006538;28;20229;-82
2022/03/22 01:33:28;;;;;;;17.67;11.30;;;;;;;6.93;45.88;100193.41;7007805;28;20209;-83
2022/03/22 01:36:49;;;;;;;13.00;10.77;;;;;;;6.99;45.45;100196.34;7007115;28;20238;-82
2022/03/22 01:40:12;;;;;;;14.73;10.53;;;;;;;6.67;46.01;100190.53;7007272;28;20331;-83
2022/03/22 01:43:33;;;;;;;13.77;11.17;;;;;;;6.48;46.58;100179.91;7006682;28;20607;-83
2022/03/22 01:46:59;;;;;;;13.87;11.37;;;;;;;6.03;48.21;100165.50;7006407;28;20228;-83
2022/03/22 01:50:23;;;;;;;17.53;11.10;;;;;;;6.36;47.12;100196.31;7010659;28;20186;-83
2022/03/22 01:53:46;;;;;;;15.43;11.97;;;;;;;6.28;47.65;100186.31;7012899;28;20209;-82
2022/03/22 01:57:08;;;;;;;14.27;11.30;;;;;;;6.03;46.99;100162.84;7012008;28;20231;-83
2022/03/22 02:00:30;;;;;;;14.83;11.03;;;;;;;6.14;47.54;100162.66;7011997;28;20556;-83
2022/03/22 02:07:47;;;;;;;14.17;11.17;;;;;;;6.09;47.29;100159.59;6992011;28;20231;-83
2022/03/22 02:11:09;;;;;;;16.40;11.67;;;;;;;6.10;46.88;100125.59;7005850;28;20208;-83
2022/03/22 02:14:30;;;;;;;14.10;11.53;;;;;;;6.19;47.22;100147.00;7008142;28;20222;-85
2022/03/22 02:17:52;;;;;;;15.10;11.93;;;;;;;6.06;48.00;100183.09;7009941;28;20228;-84
2022/03/22 02:21:16;;;;;;;18.37;12.63;;;;;;;4.22;51.92;100142.06;7009848;28;20210;-83
2022/03/22 02:24:39;;;;;;;14.73;10.80;;;;;;;5.20;49.76;100132.25;7011054;28;20237;-84
2022/03/22 02:28:01;;;;;;;15.87;11.50;;;;;;;5.55;49.30;100137.88;7011637;28;20241;-83
2022/03/22 02:31:24;;;;;;;13.30;10.30;;;;;;;5.82;49.20;100174.66;7011576;28;20215;-82
2022/03/22 02:34:45;;;;;;;15.43;11.50;;;;;;;6.31;47.22;100161.06;7011963;28;20216;-82
2022/03/22 02:38:07;;;;;;;13.77;10.57;;;;;;;5.75;48.20;100128.88;7009586;28;20710;-84
2022/03/22 02:41:32;;;;;;;14.67;11.37;;;;;;;6.13;47.74;100166.31;7007730;28;20217;-84
2022/03/22 02:44:54;;;;;;;15.13;11.30;;;;;;;5.35;48.58;100104.13;7006149;28;20205;-84
2022/03/22 02:48:18;;;;;;;31.33;11.60;;;;;;;5.44;49.70;100156.78;7005708;28;20313;-86
2022/03/22 02:51:42;;;;;;;17.97;11.23;;;;;;;5.65;49.32;100157.47;7004245;28;20205;-85
2022/03/22 02:55:07;;;;;;;16.07;11.43;;;;;;;5.61;49.54;100149.88;7006341;28;20199;-84
2022/03/22 02:58:30;;;;;;;13.93;11.20;;;;;;;5.64;49.26;100166.50;7005864;28;20272;-85
2022/03/22 03:01:52;;;;;;;14.63;10.43;;;;;;;5.76;49.07;100176.06;7008215;28;20207;-84
2022/03/22 03:05:13;;;;;;;16.70;10.70;;;;;;;5.77;49.15;100156.34;7010180;28;20207;-85
2022/03/22 03:08:35;;;;;;;17.23;12.87;;;;;;;5.80;48.19;100176.66;7010778;28;20775;-85
2022/03/22 03:11:56;;;;;;;16.00;12.17;;;;;;;5.98;48.01;100181.16;7012962;28;20209;-85
2022/03/22 03:15:19;;;;;;;16.50;12.50;;;;;;;6.14;47.78;100177.88;7011564;28;20249;-85
2022/03/22 03:18:41;;;;;;;18.97;12.67;;;;;;;6.04;48.08;100185.94;7013049;28;20225;-85
2022/03/22 03:22:03;;;;;;;18.50;13.20;;;;;;;5.77;48.35;100180.41;7014939;28;20323;-85
2022/03/22 03:25:25;;;;;;;19.77;13.27;;;;;;;5.76;48.63;100180.56;7013931;28;20847;-85
2022/03/22 03:28:50;;;;;;;16.40;12.37;;;;;;;5.71;48.88;100183.66;7008198;28;20233;-87
2022/03/22 03:32:13;;;;;;;16.53;13.30;;;;;;;6.03;48.42;100191.44;7011147;28;20261;-86
2022/03/22 03:35:34;;;;;;;16.47;11.63;;;;;;;6.06;47.56;100165.22;7010348;28;20224;-86
2022/03/22 03:38:56;;;;;;;17.97;11.83;;;;;;;6.04;47.03;100140.44;7009316;28;20237;-85
2022/03/22 03:42:22;;;;;;;17.87;11.70;;;;;;;6.44;46.78;100191.91;7009895;28;20209;-86
2022/03/22 03:53:42;;;;;;;16.43;12.00;;;;;;;5.57;47.76;100157.34;7014692;28;20170;-85
2022/03/22 03:57:05;;;;;;;15.43;11.33;;;;;;;5.83;47.53;100163.00;7017976;28;20239;-84
2022/03/22 04:00:26;;;;;;;15.83;11.33;;;;;;;6.16;47.44;100184.78;7014208;28;20214;-86
2022/03/22 04:03:48;;;;;;;15.80;12.10;;;;;;;6.10;47.72;100189.88;7012688;28;20305;-86
2022/03/22 04:07:11;;;;;;;19.00;12.07;;;;;;;5.25;48.52;100146.03;7011515;28;20224;-87
2022/03/22 04:10:34;;;;;;;14.53;10.87;;;;;;;6.05;47.65;100176.91;7011319;28;20866;-86
2022/03/22 04:13:56;;;;;;;17.63;12.27;;;;;;;5.74;49.02;100185.22;7008472;28;20208;-87
2022/03/22 04:17:18;;;;;;;14.80;11.27;;;;;;;5.62;48.95;100186.34;7007399;28;20239;-88
2022/03/22 04:20:40;;;;;;;16.20;11.77;;;;;;;5.06;49.23;100075.66;7006957;28;20293;-88
2022/03/22 04:24:06;;;;;;;15.03;11.53;;;;;;;5.88;48.38;100182.97;7008854;28;20286;-88
2022/03/22 04:34:48;;;;;;;16.03;11.47;;;;;;;5.48;48.47;100142.13;7007300;28;20290;-87
2022/03/22 04:38:28;;;;;;;17.67;12.23;;;;;;;5.97;47.34;100195.53;7016950;28;20682;-86
2022/03/22 04:42:08;;;;;;;14.97;11.80;;;;;;;5.71;48.27;100207.75;7017960;28;20206;-87
2022/03/22 04:45:39;;;;;;;18.70;12.93;;;;;;;5.17;49.23;100159.28;7018973;28;20255;-84
2022/03/22 04:57:00;;;;;;;15.93;11.80;;;;;;;4.98;49.86;100155.72;7017270;28;20224;-84
2022/03/22 05:00:48;;;;;;;15.93;12.50;;;;;;;5.19;50.03;100220.63;7017119;28;20219;-84
2022/03/22 05:04:11;;;;;;;17.60;12.27;;;;;;;5.42;49.77;100193.50;7007650;28;20212;-82
2022/03/22 05:07:33;;;;;;;21.20;12.23;;;;;;;4.83;50.31;100219.38;7016830;28;20232;-83
2022/03/22 05:10:55;;;;;;;19.00;12.47;;;;;;;5.10;49.95;100192.03;7013482;28;20281;-84
2022/03/22 05:14:17;;;;;;;16.70;12.63;;;;;;;5.34;49.42;100197.84;7009089;28;20221;-84
2022/03/22 05:17:40;;;;;;;16.77;12.73;;;;;;;5.62;49.42;100227.34;7009778;28;20845;-85
2022/03/22 05:21:04;;;;;;;19.00;12.87;;;;;;;5.75;48.60;100235.06;7011719;28;20406;-85
2022/03/22 05:24:26;;;;;;;18.30;13.87;;;;;;;5.40;48.41;100160.72;7013764;28;20211;-84
2022/03/22 05:27:47;;;;;;;17.40;11.70;;;;;;;5.84;48.46;100237.78;7014859;28;20230;-85
2022/03/22 05:31:11;;;;;;;16.67;12.37;;;;;;;5.73;48.58;100243.22;7012065;28;20238;-86
2022/03/22 05:34:39;;;;;;;17.80;12.27;;;;;;;5.56;48.93;100251.97;7010739;28;20206;-86
2022/03/22 05:38:02;;;;;;;16.60;11.80;;;;;;;5.25;49.05;100247.66;7021862;28;20258;-86
2022/03/22 05:41:24;;;;;;;15.27;12.27;;;;;;;5.55;48.65;100252.91;7037086;28;20202;-86
2022/03/22 05:44:47;;;;;;;17.53;12.87;;;;;;;5.23;49.85;100241.59;7036890;28;20569;-86
2022/03/22 05:48:09;;;;;;;17.00;12.10;;;;;;;5.06;49.50;100175.44;7035351;28;20224;-86
2022/03/22 05:51:37;;;;;;;17.43;11.67;;;;;;;5.79;48.56;100245.34;7018343;28;20201;-87
2022/03/22 05:54:59;;;;;;;19.43;13.40;;;;;;;5.54;48.57;100235.19;7039147;28;20225;-86
2022/03/22 05:58:21;;;;;;;18.30;13.07;;;;;;;4.79;49.21;100169.03;7041483;28;20231;-86
2022/03/22 06:01:44;;;;;;;21.73;13.27;;;;;;;4.78;51.04;100259.00;7041752;28;20213;-86
2022/03/22 06:09:07;;;;;;;17.93;12.77;;;;;;;5.33;49.30;100223.75;7014991;28;20282;-88
2022/03/22 06:12:39;;;;;;;18.13;12.97;;;;;;;5.53;49.28;100240.66;7013859;28;20257;-87
2022/03/22 06:16:05;;;;;;;18.70;13.97;;;;;;;5.21;50.26;100235.56;7013769;28;20324;-87
2022/03/22 06:19:27;;;;;;;15.53;12.33;;;;;;;5.52;50.16;100228.28;7015651;28;20249;-87
2022/03/22 06:22:49;;;;;;;18.90;13.57;;;;;;;5.48;50.30;100192.13;7015023;28;20207;-86
2022/03/22 06:30:57;;;;;;;20.00;13.20;;;;;;;7.62;45.30;100253.59;7047442;28;20194;-88
2022/03/22 06:42:12;;;;;;;18.43;12.07;;;;;;;7.78;44.68;100251.91;6940072;28;20583;-75
2022/03/22 06:45:34;;;;;;;15.57;12.33;;;;;;;8.03;43.40;100208.19;6914352;28;20562;-74
2022/03/22 06:48:57;;;;;;;17.50;13.03;;;;;;;8.19;43.82;100253.16;6914232;28;20443;-74
2022/03/22 06:52:19;;;;;;;17.60;12.60;;;;;;;8.54;43.59;100237.00;6914131;28;20819;-73
2022/03/22 06:55:41;;;;;;;17.27;13.93;;;;;;;9.01;42.87;100254.44;6914189;28;20290;-72
2022/03/22 06:59:03;;;;;;;16.57;12.63;;;;;;;9.17;40.43;100107.38;6914255;28;20330;-73
2022/03/22 07:02:25;;;;;;;17.27;12.37;;;;;;;10.38;39.11;100242.03;6914335;28;20345;-72
2022/03/22 07:05:48;;;;;;;15.10;11.67;;;;;;;10.21;39.98;100191.00;6913438;28;20227;-74
2022/03/22 07:09:10;;;;;;;17.63;11.27;;;;;;;10.12;40.52;100251.28;6914640;28;20199;-74
2022/03/22 07:12:31;;;;;;;17.40;12.63;;;;;;;9.60;41.03;100252.50;6913615;28;20683;-74
2022/03/22 07:15:53;;;;;;;16.33;11.90;;;;;;;9.27;40.69;100243.47;6913720;28;20223;-74
2022/03/22 07:19:15;;;;;;;17.33;12.47;;;;;;;10.18;39.47;100250.63;6914108;28;20212;-74
2022/03/22 07:22:38;;;;;;;16.57;12.00;;;;;;;10.54;37.87;100260.91;6909352;28;20212;-74
2022/03/22 07:26:00;;;;;;;15.43;11.47;;;;;;;10.18;38.45;100142.81;6912090;28;20200;-74
2022/03/22 07:29:22;;;;;;;17.33;12.13;;;;;;;10.12;37.85;100179.38;6911885;28;20223;-74
2022/03/22 07:32:44;;;;;;;14.07;10.80;;;;;;;10.68;37.06;100151.47;6914217;28;20213;-74
2022/03/22 07:36:06;;;;;;;13.80;11.40;;;;;;;11.03;35.94;100184.22;6913314;28;20208;-74
2022/03/22 07:39:33;;;;;;;13.63;10.33;;;;;;;10.70;35.65;100125.16;6914315;28;20216;-74
2022/03/22 07:42:55;;;;;;;14.00;10.70;;;;;;;11.60;35.16;100234.28;6915281;28;20566;-74
2022/03/22 07:46:17;;;;;;;17.03;10.83;;;;;;;12.52;34.86;100245.78;6912051;28;20211;-74
2022/03/22 07:53:14;;;;;;;14.83;11.07;;;;;;;12.61;33.66;100168.09;6875647;28;20203;-74
2022/03/22 07:56:38;;;;;;;15.23;11.80;;;;;;;13.29;33.46;100252.66;6918817;28;20257;-74
2022/03/22 08:00:00;;;;;;;20.63;11.90;;;;;;;13.75;33.70;100232.41;6915999;28;20661;-74
2022/03/22 08:03:23;;;;;;;16.80;12.20;;;;;;;14.17;33.34;100241.41;6919197;28;20212;-74
2022/03/22 08:06:44;;;;;;;14.77;11.23;;;;;;;13.42;32.88;100225.72;6914670;28;20213;-75
2022/03/22 08:10:07;;;;;;;13.93;11.17;;;;;;;14.00;32.84;100244.56;6913416;28;20567;-74
2022/03/22 08:13:30;;;;;;;13.13;10.23;;;;;;;13.89;30.72;100144.75;6918416;28;20230;-75
2022/03/22 08:16:51;;;;;;;12.07;10.67;;;;;;;13.62;30.96;100169.91;6918446;28;20679;-75
2022/03/22 08:20:14;;;;;;;17.13;10.10;;;;;;;15.00;28.79;100166.34;6918809;28;20522;-74
2022/03/22 08:23:36;;;;;;;11.07;9.63;;;;;;;15.62;27.14;100235.03;6918458;28;20229;-75
2022/03/22 08:26:57;;;;;;;16.20;10.23;;;;;;;15.60;27.38;100237.13;6937844;22;20473;-82
2022/03/22 08:30:21;;;;;;;13.07;9.93;;;;;;;15.92;27.21;100235.56;6976631;28;20217;-81
2022/03/22 08:33:43;;;;;;;13.10;9.77;;;;;;;16.65;26.33;100235.50;6963397;28;20205;-81
2022/03/22 08:37:05;;;;;;;13.47;10.13;;;;;;;16.73;26.01;100221.66;6962010;28;20225;-83
2022/03/22 08:40:27;;;;;;;11.63;10.23;;;;;;;17.00;26.26;100247.84;6957036;28;20200;-81
2022/03/22 08:43:48;;;;;;;13.10;10.27;;;;;;;16.70;25.57;100227.53;6966230;28;20297;-82
2022/03/22 08:47:12;;;;;;;10.63;9.53;;;;;;;17.12;25.22;100243.44;6974196;28;20319;-81
2022/03/22 08:50:34;;;;;;;13.97;10.27;;;;;;;17.40;25.30;100233.13;6940784;28;20582;-81
2022/03/22 08:53:56;;;;;;;11.97;9.77;;;;;;;16.54;26.22;100238.84;6918783;28;20211;-82
2022/03/22 08:57:18;;;;;;;13.10;10.87;;;;;;;17.46;25.07;100222.19;6918682;28;20232;-82
2022/03/22 09:00:40;;;;;;;13.80;11.13;;;;;;;17.09;25.23;100232.94;6920296;28;20784;-82
2022/03/22 09:07:42;;;;;;;15.43;10.73;;;;;;;16.59;26.42;100230.91;6954187;28;20215;-82
2022/03/22 09:11:04;;;;;;;13.67;11.03;;;;;;;17.15;26.23;100221.22;6946647;28;20207;-83
2022/03/22 09:14:28;;;;;;;16.20;11.00;;;;;;;15.51;26.71;100232.88;6957366;28;20199;-83
2022/03/22 09:17:49;;;;;;;14.77;11.50;;;;;;;16.05;25.90;100151.25;6973887;28;20237;-82
2022/03/22 09:21:12;;;;;;;13.93;11.67;;;;;;;17.00;26.38;100236.94;6974695;28;20206;-83
2022/03/22 09:24:34;;;;;;;17.67;12.43;;;;;;;16.92;27.15;100226.28;6965480;28;20235;-83
2022/03/22 09:28:00;;;;;;;14.37;11.40;;;;;;;17.35;24.87;100216.53;6946170;28;20238;-83
2022/03/22 09:31:23;;;;;;;15.60;11.90;;;;;;;17.95;25.18;100213.38;6946698;28;20214;-83
2022/03/22 09:34:45;;;;;;;16.07;12.73;;;;;;;18.57;25.00;100188.84;6946910;28;20203;-82
2022/03/22 09:38:08;;;;;;;13.60;11.83;;;;;;;18.88;24.60;100207.88;6946765;28;20235;-83
2022/03/22 09:41:31;;;;;;;16.53;11.77;;;;;;;18.36;24.03;100170.94;6950482;28;20586;-83
2022/03/22 09:44:53;;;;;;;15.87;12.23;;;;;;;18.86;24.08;100197.16;6950246;28;20209;-80
2022/03/22 09:48:16;;;;;;;16.60;12.87;;;;;;;19.74;23.54;100184.88;6951161;28;20223;-80
2022/03/22 09:55:17;;;;;;;16.40;12.47;;;;;;;19.82;22.40;100195.47;6951232;28;20221;-80
2022/03/22 09:58:39;;;;;;;14.37;12.33;;;;;;;18.47;24.38;100183.03;6949418;28;20235;-80
2022/03/22 10:02:01;;;;;;;17.63;13.07;;;;;;;18.65;24.60;100185.81;6951261;28;20573;-80
2022/03/22 10:05:24;;;;;;;14.37;12.03;;;;;;;19.68;24.01;100183.88;6951275;28;20204;-80
2022/03/22 10:08:49;;;;;;;16.60;12.87;;;;;;;19.57;24.28;100181.06;6949521;28;20220;-80
2022/03/22 10:12:12;;;;;;;19.37;12.80;;;;;;;19.88;23.46;100189.91;6949460;28;20185;-79
2022/03/22 10:15:36;;;;;;;16.53;12.53;;;;;;;20.83;22.75;100181.50;6950358;28;20295;-80
2022/03/22 10:18:58;;;;;;;15.03;12.13;;;;;;;21.37;21.61;100168.22;6950543;28;20235;-80
2022/03/22 10:22:24;;;;;;;15.87;12.97;;;;;;;21.28;22.26;100155.13;6949301;28;20215;-81
2022/03/22 10:25:45;;;;;;;14.93;12.43;;;;;;;20.58;22.53;100130.69;6946912;28;20215;-81
2022/03/22 10:29:12;;;;;;;14.93;12.10;;;;;;;19.98;22.99;100157.34;6947123;28;20234;-82
2022/03/22 10:32:35;;;;;;;13.77;11.80;;;;;;;18.54;24.38;100052.69;6948703;28;20217;-81
2022/03/22 10:35:57;;;;;;;14.17;12.57;;;;;;;18.82;24.33;100168.59;6947579;28;20207;-82
2022/03/22 10:39:19;;;;;;;14.27;12.47;;;;;;;19.25;23.81;100168.63;6947893;28;20270;-81
2022/03/22 10:42:40;;;;;;;14.60;12.03;;;;;;;18.45;25.08;100155.09;6947686;28;20297;-82
2022/03/22 10:46:05;;;;;;;16.40;13.03;;;;;;;19.75;23.54;100143.56;6955851;28;20655;-81
2022/03/22 10:49:27;;;;;;;16.17;12.80;;;;;;;20.03;23.28;100153.88;6975459;28;20340;-81
2022/03/22 10:52:51;;;;;;;12.97;11.40;;;;;;;19.10;23.95;100140.78;6979432;28;20692;-81
2022/03/22 10:56:12;;;;;;;16.77;12.60;;;;;;;18.94;24.33;100141.38;6977758;28;20210;-79
2022/03/22 10:59:35;;;;;;;17.57;12.77;;;;;;;19.75;24.27;100153.69;6977603;28;20222;-79
2022/03/22 11:02:58;;;;;;;16.33;13.30;;;;;;;19.73;24.49;100153.06;6976058;28;20676;-83
2022/03/22 11:06:20;;;;;;;14.43;12.13;;;;;;;20.48;22.87;100101.16;6973632;28;20212;-81
2022/03/22 11:09:42;;;;;;;15.03;12.10;;;;;;;20.72;22.71;100149.41;6976077;28;20275;-82
2022/03/22 11:13:04;;;;;;;16.20;12.43;;;;;;;21.56;21.19;100114.84;6966040;28;20204;-82
2022/03/22 11:16:27;;;;;;;16.10;13.00;;;;;;;21.70;21.15;100132.72;6947375;28;20195;-82
2022/03/22 11:19:50;;;;;;;14.63;12.60;;;;;;;21.31;21.41;100124.47;6949235;28;20240;-82
2022/03/22 11:23:12;;;;;;;16.13;13.20;;;;;;;20.87;21.36;100129.75;6951586;28;20200;-81
2022/03/22 11:26:40;;;;;;;16.30;12.80;;;;;;;21.46;20.44;100139.34;6926711;28;20229;-83
2022/03/22 11:30:01;;;;;;;17.20;13.07;;;;;;;20.18;22.01;100133.28;6930802;28;20194;-84
2022/03/22 11:37:04;;;;;;;18.20;12.97;;;;;;;20.78;21.71;100110.09;6923544;28;20226;-83
2022/03/22 11:44:09;;;;;;;15.27;13.67;;;;;;;21.27;21.46;100111.50;6926156;28;20196;-81
2022/03/22 11:47:38;;;;;;;15.00;13.17;;;;;;;21.99;20.68;100117.91;6941825;28;20219;-81
2022/03/22 11:51:04;;;;;;;17.27;12.60;;;;;;;20.82;20.96;100113.19;6956250;28;20201;-82
2022/03/22 11:54:28;;;;;;;16.50;13.73;;;;;;;22.26;19.85;100118.94;6947636;28;20197;-81
2022/03/22 11:57:51;;;;;;;14.47;12.97;;;;;;;21.90;19.91;100071.88;6925105;28;20238;-81
2022/03/22 12:01:16;;;;;;;16.90;13.13;;;;;;;22.73;19.84;100095.53;6935642;28;20199;-81
2022/03/22 12:04:42;;;;;;;15.23;13.43;;;;;;;23.01;19.34;100091.81;6925347;28;20234;-80
2022/03/22 12:08:06;;;;;;;15.47;12.83;;;;;;;23.50;18.62;100094.41;6945486;28;20224;-81
2022/03/22 12:11:29;;;;;;;14.60;12.73;;;;;;;23.20;19.70;100091.25;6953056;28;20363;-81
2022/03/22 12:14:51;;;;;;;16.87;13.27;;;;;;;23.09;19.69;100089.47;6948219;28;20212;-81
2022/03/22 12:18:13;;;;;;;14.30;12.80;;;;;;;22.81;19.46;100086.84;6975323;28;20703;-81
2022/03/22 12:21:36;;;;;;;16.53;12.57;;;;;;;21.82;20.27;100080.47;6979283;28;20690;-81
2022/03/22 12:24:59;;;;;;;17.33;13.77;;;;;;;22.28;20.48;100053.56;6971538;28;20207;-82
2022/03/22 12:28:22;;;;;;;18.30;13.37;;;;;;;22.69;20.14;100077.03;6939691;28;20235;-81
2022/03/22 12:31:50;;;;;;;14.60;13.10;;;;;;;22.53;20.48;100073.22;6968659;28;20247;-82
2022/03/22 12:35:12;;;;;;;15.63;13.47;;;;;;;22.84;19.94;100058.84;6973035;28;20209;-81
2022/03/22 12:38:34;;;;;;;19.07;13.40;;;;;;;22.22;20.36;100068.31;6966249;28;20249;-81
2022/03/22 12:41:57;;;;;;;17.57;13.33;;;;;;;22.00;20.72;100048.16;6952892;28;20235;-81
2022/03/22 12:45:21;;;;;;;15.60;13.10;;;;;;;23.29;20.22;100059.47;6940096;28;20201;-81
2022/03/22 12:48:42;;;;;;;13.90;11.70;;;;;;;22.56;19.15;100055.41;6952137;28;20577;-82
2022/03/22 12:52:04;;;;;;;15.23;13.13;;;;;;;22.53;19.56;100047.69;6951557;28;20263;-81
2022/03/22 12:55:27;;;;;;;15.00;13.40;;;;;;;22.60;19.76;100024.38;6951818;28;20215;-83
2022/03/22 12:58:50;;;;;;;16.97;13.13;;;;;;;22.73;19.47;100040.53;6950063;28;20238;-82
2022/03/22 13:02:14;;;;;;;16.67;13.47;;;;;;;21.49;20.57;100048.25;6950992;28;20207;-82
2022/03/22 13:05:40;;;;;;;14.03;12.60;;;;;;;23.04;18.78;100023.34;6950217;28;20209;-83
2022/03/22 13:12:42;;;;;;;15.17;13.63;;;;;;;21.94;19.61;100027.16;6954578;28;20658;-81
2022/03/22 13:16:04;;;;;;;13.37;11.57;;;;;;;22.96;18.44;100017.47;6969961;28;20199;-82
2022/03/22 13:19:31;;;;;;;17.63;13.17;;;;;;;22.25;19.15;100012.03;6964021;28;20226;-82
2022/03/22 13:22:54;;;;;;;14.93;13.30;;;;;;;22.34;20.26;100008.59;6951883;28;20213;-82
2022/03/22 13:26:16;;;;;;;22.03;12.70;;;;;;;22.98;19.76;100013.38;6951182;28;20340;-82
2022/03/22 13:29:39;;;;;;;15.00;13.43;;;;;;;22.55;20.04;100013.31;6951093;28;20234;-82
2022/03/22 13:33:11;;;;;;;14.63;12.60;;;;;;;22.30;19.59;100001.13;6951296;28;20258;-82
2022/03/22 13:36:34;;;;;;;16.17;12.63;;;;;;;21.93;19.73;99999.94;6950693;28;20634;-82
2022/03/22 13:40:06;;;;;;;14.67;11.60;;;;;;;23.28;18.49;99999.16;6951281;28;20228;-81
2022/03/22 13:43:28;;;;;;;17.37;11.97;;;;;;;23.57;18.57;99993.16;6951213;28;20211;-82
2022/03/22 13:46:50;;;;;;;14.63;12.67;;;;;;;23.17;19.41;99989.97;6949845;28;20225;-81
2022/03/22 13:50:14;;;;;;;16.80;13.47;;;;;;;23.04;19.72;99982.09;6951242;28;20256;-82
2022/03/22 13:53:36;;;;;;;13.90;12.20;;;;;;;23.02;18.97;99986.19;6951369;28;20554;-82
2022/03/22 13:57:08;;;;;;;15.27;13.13;;;;;;;22.89;20.01;99970.88;6948932;28;20267;-81
2022/03/22 14:00:33;;;;;;;14.77;13.23;;;;;;;23.11;19.94;99973.63;6951409;28;20562;-81
2022/03/22 14:03:54;;;;;;;15.03;13.47;;;;;;;22.73;20.89;99960.78;6957530;28;20203;-81
2022/03/22 14:07:16;;;;;;;14.47;12.97;;;;;;;23.22;19.88;99968.00;6963508;28;20217;-82
2022/03/22 14:10:40;;;;;;;16.20;12.13;;;;;;;23.59;19.26;99977.19;6973650;28;20251;-82
2022/03/22 14:14:02;;;;;;;13.43;10.70;;;;;;;22.66;18.73;99962.06;6978006;28;20230;-82
2022/03/22 14:17:23;;;;;;;13.73;11.50;;;;;;;23.27;18.95;99964.47;6977719;28;20225;-82
2022/03/22 14:20:45;;;;;;;14.30;12.40;;;;;;;22.60;19.11;99949.34;6978581;28;20228;-81
2022/03/22 14:24:07;;;;;;;13.40;11.50;;;;;;;22.76;19.76;99954.78;6977192;28;20288;-82
2022/03/22 14:27:31;;;;;;;15.23;13.10;;;;;;;22.60;20.24;99943.84;6977346;28;20268;-81
2022/03/22 14:30:54;;;;;;;15.20;12.23;;;;;;;22.96;20.08;99934.94;6978279;28;20214;-81
2022/03/22 14:35:46;;;;;;;14.20;12.27;;;;;;;23.66;19.59;99949.47;6978111;28;20299;-82
2022/03/22 14:37:59;;;;;;;15.03;11.90;;;;;;;23.47;19.08;99946.25;6977375;28;20282;-82
2022/03/22 14:41:25;;;;;;;17.10;11.93;;;;;;;22.71;19.07;99910.72;6978352;28;20338;-82
2022/03/22 14:44:48;;;;;;;12.67;10.17;;;;;;;23.41;18.18;99940.94;6974672;28;20712;-82
2022/03/22 14:48:10;;;;;;;13.90;11.23;;;;;;;23.31;18.91;99938.09;6955702;28;20222;-82
2022/03/22 14:55:10;;;;;;;16.97;12.03;;;;;;;23.29;18.96;99934.75;6953796;28;20202;-82
2022/03/22 14:58:52;;;;;;;12.40;11.10;;;;;;;23.11;18.73;99929.59;6963102;28;20228;-82
2022/03/22 15:02:17;;;;;;;12.77;10.73;;;;;;;23.29;18.92;99938.34;6966003;28;20212;-82
2022/03/22 15:05:41;;;;;;;13.70;10.90;;;;;;;23.50;18.82;99931.13;6952259;28;20203;-82
2022/03/22 15:09:05;;;;;;;12.97;10.73;;;;;;;23.45;19.05;99925.56;6961097;28;20309;-82
2022/03/22 15:12:27;;;;;;;12.33;11.03;;;;;;;23.45;19.03;99923.66;6973631;28;20196;-81
2022/03/22 15:15:48;;;;;;;14.97;12.00;;;;;;;23.13;19.16;99917.22;6976401;28;20211;-82
2022/03/22 15:19:12;;;;;;;13.97;10.50;;;;;;;23.15;19.28;99905.97;6959817;28;20245;-82
2022/03/22 15:22:33;;;;;;;12.03;10.73;;;;;;;22.53;19.55;99913.78;6950295;28;20231;-82
2022/03/22 15:25:55;;;;;;;14.63;10.53;;;;;;;23.58;18.93;99912.22;6949187;28;20205;-82
2022/03/22 15:29:16;;;;;;;15.20;11.17;;;;;;;22.56;19.97;99910.53;6949893;28;20257;-81
2022/03/22 15:32:38;;;;;;;14.03;11.40;;;;;;;22.76;19.48;99888.78;6951325;28;20216;-82
2022/03/22 15:36:01;;;;;;;11.83;10.47;;;;;;;22.49;20.57;99904.38;6950900;28;20217;-80
2022/03/22 15:39:23;;;;;;;15.33;11.50;;;;;;;23.02;20.04;99867.88;6943871;28;20350;-82
2022/03/22 15:42:45;;;;;;;15.23;11.00;;;;;;;23.11;19.98;99900.16;6944008;28;20212;-80
2022/03/22 15:46:07;;;;;;;11.93;10.07;;;;;;;23.66;19.87;99881.44;6950719;28;20207;-82
2022/03/22 15:49:28;;;;;;;13.03;10.17;;;;;;;23.87;19.47;99872.25;6952551;28;20230;-80
2022/03/22 15:52:51;;;;;;;14.93;10.53;;;;;;;23.70;19.62;99877.06;6953250;28;20308;-83
2022/03/22 15:56:13;;;;;;;12.37;10.67;;;;;;;22.98;19.51;99875.81;6953019;28;20208;-82
2022/03/22 15:59:34;;;;;;;15.07;11.77;;;;;;;22.75;20.36;99875.28;6956977;28;20236;-82
2022/03/22 16:02:56;;;;;;;11.67;9.37;;;;;;;23.55;19.92;99895.38;6955665;28;20222;-82
2022/03/22 16:06:20;;;;;;;13.90;10.30;;;;;;;22.84;19.68;99879.25;6949493;28;20210;-82
2022/03/22 16:09:43;;;;;;;12.13;10.33;;;;;;;23.09;20.15;99885.84;6978707;28;20234;-82
2022/03/22 16:13:05;;;;;;;15.00;11.43;;;;;;;22.82;20.55;99884.16;6975171;28;20213;-83
2022/03/22 16:16:27;;;;;;;14.30;10.10;;;;;;;22.81;20.77;99855.00;6967955;28;20205;-82
2022/03/22 16:19:49;;;;;;;15.57;10.80;;;;;;;22.87;20.92;99896.06;6955053;28;20244;-82
2022/03/22 16:23:10;;;;;;;14.87;11.33;;;;;;;22.11;21.91;99895.28;6959529;28;20215;-82
2022/03/22 16:26:34;;;;;;;16.00;11.73;;;;;;;22.37;21.86;99897.31;6960085;28;20217;-82
2022/03/22 16:29:55;;;;;;;14.47;11.70;;;;;;;22.55;21.25;99884.09;6933026;28;20210;-82
2022/03/22 16:36:56;;;;;;;15.30;10.67;;;;;;;22.96;21.25;99899.19;6939328;28;20251;-81
2022/03/22 16:40:18;;;;;;;15.73;11.00;;;;;;;22.87;21.28;99901.56;6939320;28;20228;-82
2022/03/22 16:43:43;;;;;;;12.80;10.83;;;;;;;22.79;21.35;99901.19;6945130;28;20199;-82
2022/03/22 16:47:07;;;;;;;17.67;11.30;;;;;;;22.78;21.38;99908.59;6945985;28;20732;-82